MSC Lirica — HOPW — position and weather

sailwx.info

Track history (hours):
 
Tides and Currents Weather Stations Pressure Air Temp Water Temp Dewpoint Dewpoint Depression Visibility Wind Speed Wind Dir Waves Ship Positions

MSC Lirica

Operator: Mediterranean Shipping Company

Last reported at 2017-Sep-19 23:31 UTC. Time now 2017-Sep-20 00:35 UTC.
Position N 38°54' E 121°47'.

Length 275 m; draft 6.8 m.

Type: Ship. MMSI: 356042000.

Date/timePositionNaut miles runAvg speedWind from/ knotsBaromVisibWave heightAir tempDewpointWater temp
2017-Sep-19 23:31N 38°54' E 121°47'010.1
2017-Sep-19 23:30N 38°54' E 121°47'612.6
2017-Sep-19 23:00N 38°48' E 121°50'  
2017-Sep-16 12:04N 38°12' E 122°30'117.9
2017-Sep-16 12:00N 38°13' E 122°29'4217.3
2017-Sep-16 09:36N 38°42' E 121°51'116.7
2017-Sep-16 09:30N 38°43' E 121°50'816.0
2017-Sep-16 09:00N 38°50' E 121°45'5 0.5
2017-Sep-15 22:42N 38°55' E 121°44'312.5
2017-Sep-15 22:28N 38°53' E 121°47'510.3
2017-Sep-15 22:00N 38°49' E 121°49'812.2
2017-Sep-15 21:19N 38°43' E 121°56'411.7
2017-Sep-15 21:00N 38°40' E 121°59'711.7
2017-Sep-15 20:24N 38°35' E 122°05'1212.8
2017-Sep-15 19:29N 38°26' E 122°15'813.1
2017-Sep-15 18:53N 38°21' E 122°22'3012.8
2017-Sep-15 16:35N 37°59' E 122°48'115.4
2017-Sep-15 16:29N 37°58' E 122°49'817.2
2017-Sep-15 16:00N 37°52' E 122°57'917.0
2017-Sep-15 15:29N 37°45' E 123°04'1716.8
2017-Sep-15 14:30N 37°31' E 123°15'1216.6
2017-Sep-15 13:47N 37°21' E 123°22'1416.3
2017-Sep-15 12:57N 37°08' E 123°29'  
2017-Sep-12 13:50N 37°51' E 122°57'616.9
2017-Sep-12 13:30N 37°55' E 122°52'817.0
2017-Sep-12 13:00N 38°01' E 122°44'1117.0
2017-Sep-12 12:20N 38°09' E 122°34'917.5
2017-Sep-12 11:49N 38°15' E 122°26'617.8
2017-Sep-12 11:29N 38°19' E 122°21'917.9
2017-Sep-12 11:00N 38°26' E 122°13'918.0
2017-Sep-12 10:30N 38°32' E 122°05'917.8
2017-Sep-12 10:00N 38°38' E 121°57'917.7
2017-Sep-12 09:31N 38°44' E 121°49'8 0.8
2017-Sep-11 22:20N 38°53' E 121°47'412.1
2017-Sep-11 22:00N 38°49' E 121°49'815.6
2017-Sep-11 21:29N 38°43' E 121°56'816.0
2017-Sep-11 21:00N 38°37' E 122°03'1016.2
2017-Sep-11 20:22N 38°30' E 122°12'916.3
2017-Sep-11 19:48N 38°23' E 122°20'516.2
2017-Sep-11 19:30N 38°19' E 122°24'815.8
2017-Sep-11 19:00N 38°13' E 122°30'815.8
2017-Sep-11 18:28N 38°07' E 122°38'815.6
2017-Sep-11 17:55N 38°01' E 122°46'615.4
2017-Sep-11 17:30N 37°57' E 122°51'815.2
2017-Sep-11 17:00N 37°51' E 122°57'  
Track history (hours):
 
Tides and Currents Weather Stations Pressure Air Temp Water Temp Dewpoint Dewpoint Depression Visibility Wind Speed Wind Dir Waves Ship Positions

MSC Lirica

Operator: Mediterranean Shipping Company

Last reported at 2017-Sep-19 23:31 UTC. Time now 2017-Sep-20 00:35 UTC.
Position N 38°54' E 121°47'.

Length 275 m; draft 6.8 m.

Type: Ship. MMSI: 356042000.

Date/timePositionNaut miles runAvg speedWind from/ knotsBaromVisibWave heightAir tempDewpointWater temp
2017-Sep-19 23:31N 38°54' E 121°47'010.1
2017-Sep-19 23:30N 38°54' E 121°47'612.6
2017-Sep-19 23:00N 38°48' E 121°50'  
2017-Sep-16 12:04N 38°12' E 122°30'117.9
2017-Sep-16 12:00N 38°13' E 122°29'4217.3
2017-Sep-16 09:36N 38°42' E 121°51'116.7
2017-Sep-16 09:30N 38°43' E 121°50'816.0
2017-Sep-16 09:00N 38°50' E 121°45'5 0.5
2017-Sep-15 22:42N 38°55' E 121°44'312.5
2017-Sep-15 22:28N 38°53' E 121°47'510.3
2017-Sep-15 22:00N 38°49' E 121°49'812.2
2017-Sep-15 21:19N 38°43' E 121°56'411.7
2017-Sep-15 21:00N 38°40' E 121°59'711.7
2017-Sep-15 20:24N 38°35' E 122°05'1212.8
2017-Sep-15 19:29N 38°26' E 122°15'813.1
2017-Sep-15 18:53N 38°21' E 122°22'3012.8
2017-Sep-15 16:35N 37°59' E 122°48'115.4
2017-Sep-15 16:29N 37°58' E 122°49'817.2
2017-Sep-15 16:00N 37°52' E 122°57'917.0
2017-Sep-15 15:29N 37°45' E 123°04'1716.8
2017-Sep-15 14:30N 37°31' E 123°15'1216.6
2017-Sep-15 13:47N 37°21' E 123°22'1416.3
2017-Sep-15 12:57N 37°08' E 123°29'  
2017-Sep-12 13:50N 37°51' E 122°57'616.9
2017-Sep-12 13:30N 37°55' E 122°52'817.0
2017-Sep-12 13:00N 38°01' E 122°44'1117.0
2017-Sep-12 12:20N 38°09' E 122°34'917.5
2017-Sep-12 11:49N 38°15' E 122°26'617.8
2017-Sep-12 11:29N 38°19' E 122°21'917.9
2017-Sep-12 11:00N 38°26' E 122°13'918.0
2017-Sep-12 10:30N 38°32' E 122°05'917.8
2017-Sep-12 10:00N 38°38' E 121°57'917.7
2017-Sep-12 09:31N 38°44' E 121°49'8 0.8
2017-Sep-11 22:20N 38°53' E 121°47'412.1
2017-Sep-11 22:00N 38°49' E 121°49'815.6
2017-Sep-11 21:29N 38°43' E 121°56'816.0
2017-Sep-11 21:00N 38°37' E 122°03'1016.2
2017-Sep-11 20:22N 38°30' E 122°12'916.3
2017-Sep-11 19:48N 38°23' E 122°20'516.2
2017-Sep-11 19:30N 38°19' E 122°24'815.8
2017-Sep-11 19:00N 38°13' E 122°30'815.8
2017-Sep-11 18:28N 38°07' E 122°38'815.6
2017-Sep-11 17:55N 38°01' E 122°46'615.4
2017-Sep-11 17:30N 37°57' E 122°51'815.2
2017-Sep-11 17:00N 37°51' E 122°57'  

Dump ship's entire track history